Hixton, WI (54635)

8:09 PM CST on December 24, 2014 (GMT -0600)
RAWS BLACK RIVER FALLS WI US | Change Station
CLOSE
Current Station
Personal Weather Station
Location: Black River Falls, WI
Elevation: 837 ft
Nearby Weather Stations

Elev 837 ft 44.30 °N, 90.83 °W | Updated 54 minutes ago

Overcast
Overcast
35 °F
Feels Like 35 °F
N
2
Wind Variable Wind from SSW
Gusts 9.0 mph

Today
High -- | Low -- °F
--% Chance of Precip.
Yesterday
High -- | Low -- °F
Precip. -- in
7:38 AM 4:29 PM
Waxing Crescent, 12% visible
Pressure 29.58 in
Visibility 10.0 miles
Clouds Overcast 3400 ft
Windchill 35 °F
Dew Point 33 °F
Humidity 92%
Rainfall 0.00 in
Snow Depth Not available.
UV 0 out of 12
Pollen .10 out of 12
Air Quality Not available.
Flu Activity Not available.
METAR KBCK 250155Z AUTO 27005KT 10SM OVC034 01/00 A2958 RMK AO2 T00141003

More Conditions Fewer Conditions

Pressure 29.58 in
Visibility 10.0 miles
Clouds Overcast 3400 ft
Windchill 35 °F
Dew Point 33 °F
Humidity 92%
Rainfall 0.00 in
Snow Depth Not available.
UV 0 out of 12
Pollen .10 out of 12
Air Quality Not available.
Flu Activity Not available.
METAR KBCK 250155Z AUTO 27005KT 10SM OVC034 01/00 A2958 RMK AO2 T00141003

More Conditions Fewer Conditions

10-Day Weather Forecast

Almanac

Astronomy

Dec. 24, 2014 Rise Set
Actual Time
Civil Twilight
Nautical Twilight
Astronomical Twilight
Moon
Length of Visible Light
Length of Day
Tomorrow will be .
, % of the Moon is Illuminated

Today's Extremes

State Highs State Lows

Community

WunderPhotos

Upload Photos

1,780,208 photos uploaded!

WunderBlogs® & News

Nearby

Air Quality

  Air Quality AQ Index Pollutant
Not available.

Snow Depth

Station Depth Elevation

Earthquake Activity

City Distance Mag. Time & Date
Minimum magnitude displayed is 2.5.

Coastal Water Temperatures

Place Temperature

Nearby Weather Stations